sensor_id;sensor_type;location;lat;lon;timestamp;pressure;altitude;pressure_sealevel;temperature;humidity
58955;BME280;45815;52.334;5.024;2023-04-02T00:02:48;101340.25;;;7.48;100.00
58955;BME280;45815;52.334;5.024;2023-04-02T00:07:58;101344.09;;;7.57;100.00
58955;BME280;45815;52.334;5.024;2023-04-02T00:10:36;101356.28;;;7.57;100.00
58955;BME280;45815;52.334;5.024;2023-04-02T00:15:39;101358.63;;;7.51;100.00
58955;BME280;45815;52.334;5.024;2023-04-02T00:18:06;101364.75;;;7.51;100.00
58955;BME280;45815;52.334;5.024;2023-04-02T00:20:34;101356.97;;;7.53;100.00
58955;BME280;45815;52.334;5.024;2023-04-02T00:23:03;101373.53;;;7.53;100.00
58955;BME280;45815;52.334;5.024;2023-04-02T00:25:32;101373.50;;;7.52;100.00
58955;BME280;45815;52.334;5.024;2023-04-02T00:27:59;101374.97;;;7.45;100.00
58955;BME280;45815;52.334;5.024;2023-04-02T00:30:24;101384.66;;;7.48;100.00
58955;BME280;45815;52.334;5.024;2023-04-02T00:32:50;101365.91;;;7.37;100.00
58955;BME280;45815;52.334;5.024;2023-04-02T00:35:25;101381.53;;;7.35;100.00
58955;BME280;45815;52.334;5.024;2023-04-02T00:37:52;101390.56;;;7.44;100.00
58955;BME280;45815;52.334;5.024;2023-04-02T00:40:21;101394.91;;;7.43;100.00
58955;BME280;45815;52.334;5.024;2023-04-02T00:42:48;101408.28;;;7.51;100.00
58955;BME280;45815;52.334;5.024;2023-04-02T00:45:20;101417.53;;;7.43;100.00
58955;BME280;45815;52.334;5.024;2023-04-02T00:47:47;101411.56;;;7.47;100.00
58955;BME280;45815;52.334;5.024;2023-04-02T00:52:40;101422.78;;;7.44;100.00
58955;BME280;45815;52.334;5.024;2023-04-02T00:57:34;101428.88;;;7.43;100.00
58955;BME280;45815;52.334;5.024;2023-04-02T01:05:48;101431.00;;;7.32;100.00
58955;BME280;45815;52.334;5.024;2023-04-02T01:19:33;101450.41;;;7.16;100.00
58955;BME280;45815;52.334;5.024;2023-04-02T01:22:27;101458.72;;;7.08;100.00
58955;BME280;45815;52.334;5.024;2023-04-02T01:24:58;101469.47;;;7.15;100.00
58955;BME280;45815;52.334;5.024;2023-04-02T01:27:28;101469.47;;;7.15;100.00
58955;BME280;45815;52.334;5.024;2023-04-02T01:29:57;101473.88;;;7.16;100.00
58955;BME280;45815;52.334;5.024;2023-04-02T01:32:27;101470.34;;;7.16;100.00
58955;BME280;45815;52.334;5.024;2023-04-02T01:34:54;101463.72;;;7.03;100.00
58955;BME280;45815;52.334;5.024;2023-04-02T01:37:45;101476.72;;;7.02;100.00
58955;BME280;45815;52.334;5.024;2023-04-02T01:45:46;101494.84;;;6.98;100.00
58955;BME280;45815;52.334;5.024;2023-04-02T01:48:22;101511.19;;;6.94;100.00
58955;BME280;45815;52.334;5.024;2023-04-02T01:50:51;101509.69;;;7.00;100.00
58955;BME280;45815;52.334;5.024;2023-04-02T01:53:20;101514.91;;;7.00;100.00
58955;BME280;45815;52.334;5.024;2023-04-02T01:55:50;101513.13;;;6.98;100.00
58955;BME280;45815;52.334;5.024;2023-04-02T01:58:23;101526.09;;;6.97;100.00
58955;BME280;45815;52.334;5.024;2023-04-02T02:01:01;101512.59;;;6.86;100.00
58955;BME280;45815;52.334;5.024;2023-04-02T02:03:29;101523.56;;;6.98;100.00
58955;BME280;45815;52.334;5.024;2023-04-02T02:05:56;101534.00;;;6.98;100.00
58955;BME280;45815;52.334;5.024;2023-04-02T02:08:38;101533.78;;;6.94;100.00
58955;BME280;45815;52.334;5.024;2023-04-02T02:11:09;101534.75;;;6.96;100.00
58955;BME280;45815;52.334;5.024;2023-04-02T02:13:36;101539.97;;;6.96;100.00
58955;BME280;45815;52.334;5.024;2023-04-02T02:16:03;101539.91;;;6.94;100.00
58955;BME280;45815;52.334;5.024;2023-04-02T02:18:29;101545.13;;;6.94;100.00
58955;BME280;45815;52.334;5.024;2023-04-02T02:20:59;101556.94;;;6.86;100.00
58955;BME280;45815;52.334;5.024;2023-04-02T02:23:29;101554.16;;;6.83;100.00
58955;BME280;45815;52.334;5.024;2023-04-02T02:25:55;101570.00;;;6.86;100.00
58955;BME280;45815;52.334;5.024;2023-04-02T02:28:26;101565.56;;;6.85;100.00
58955;BME280;45815;52.334;5.024;2023-04-02T02:31:02;101581.22;;;6.85;100.00
58955;BME280;45815;52.334;5.024;2023-04-02T02:33:41;101579.03;;;6.75;100.00
58955;BME280;45815;52.334;5.024;2023-04-02T02:37:03;101590.44;;;6.77;100.00
58955;BME280;45815;52.334;5.024;2023-04-02T02:39:25;101586.56;;;6.69;100.00
58955;BME280;45815;52.334;5.024;2023-04-02T02:42:13;101594.81;;;6.78;100.00
58955;BME280;45815;52.334;5.024;2023-04-02T02:44:43;101584.94;;;6.71;100.00
58955;BME280;45815;52.334;5.024;2023-04-02T02:47:17;101600.50;;;6.69;100.00
58955;BME280;45815;52.334;5.024;2023-04-02T02:49:46;101606.69;;;6.71;100.00
58955;BME280;45815;52.334;5.024;2023-04-02T02:54:56;101621.75;;;6.59;100.00
58955;BME280;45815;52.334;5.024;2023-04-02T02:57:28;101626.91;;;6.58;100.00
58955;BME280;45815;52.334;5.024;2023-04-02T02:59:57;101619.03;;;6.56;100.00
58955;BME280;45815;52.334;5.024;2023-04-02T03:02:27;101625.03;;;6.55;100.00
58955;BME280;45815;52.334;5.024;2023-04-02T03:04:54;101629.22;;;6.51;100.00
58955;BME280;45815;52.334;5.024;2023-04-02T03:07:24;101628.03;;;6.45;100.00
58955;BME280;45815;52.334;5.024;2023-04-02T03:15:39;101654.84;;;6.42;100.00
58955;BME280;45815;52.334;5.024;2023-04-02T03:18:13;101658.88;;;6.36;100.00
58955;BME280;45815;52.334;5.024;2023-04-02T03:20:49;101670.28;;;6.38;100.00
58955;BME280;45815;52.334;5.024;2023-04-02T03:23:22;101677.22;;;6.37;100.00
58955;BME280;45815;52.334;5.024;2023-04-02T03:26:14;101683.66;;;6.27;100.00
58955;BME280;45815;52.334;5.024;2023-04-02T03:28:50;101689.78;;;6.28;100.00
58955;BME280;45815;52.334;5.024;2023-04-02T03:31:23;101693.38;;;6.30;100.00
58955;BME280;45815;52.334;5.024;2023-04-02T03:33:55;101704.47;;;6.26;100.00
58955;BME280;45815;52.334;5.024;2023-04-02T03:39:20;101710.09;;;6.17;100.00
58955;BME280;45815;52.334;5.024;2023-04-02T03:41:53;101715.22;;;6.16;100.00
58955;BME280;45815;52.334;5.024;2023-04-02T03:44:29;101717.38;;;6.06;100.00
58955;BME280;45815;52.334;5.024;2023-04-02T03:47:01;101731.59;;;6.13;100.00
58955;BME280;45815;52.334;5.024;2023-04-02T03:54:34;101748.47;;;6.03;100.00
58955;BME280;45815;52.334;5.024;2023-04-02T03:57:01;101749.38;;;6.04;100.00
58955;BME280;45815;52.334;5.024;2023-04-02T04:04:51;101756.00;;;5.97;100.00
58955;BME280;45815;52.334;5.024;2023-04-02T04:07:22;101763.72;;;5.96;100.00
58955;BME280;45815;52.334;5.024;2023-04-02T04:09:52;101764.34;;;5.91;100.00
58955;BME280;45815;52.334;5.024;2023-04-02T04:14:58;101776.22;;;5.86;100.00
58955;BME280;45815;52.334;5.024;2023-04-02T04:17:32;101784.19;;;5.89;100.00
58955;BME280;45815;52.334;5.024;2023-04-02T04:20:17;101793.88;;;5.76;100.00
58955;BME280;45815;52.334;5.024;2023-04-02T04:22:50;101798.44;;;5.80;100.00
58955;BME280;45815;52.334;5.024;2023-04-02T04:25:27;101797.41;;;5.76;100.00
58955;BME280;45815;52.334;5.024;2023-04-02T04:28:24;101818.72;;;5.69;100.00
58955;BME280;45815;52.334;5.024;2023-04-02T04:33:47;101810.31;;;5.58;100.00
58955;BME280;45815;52.334;5.024;2023-04-02T04:36:25;101821.47;;;5.56;100.00
58955;BME280;45815;52.334;5.024;2023-04-02T04:38:56;101838.88;;;5.57;100.00
58955;BME280;45815;52.334;5.024;2023-04-02T04:41:31;101848.13;;;5.52;100.00
58955;BME280;45815;52.334;5.024;2023-04-02T04:46:37;101853.66;;;5.26;100.00
58955;BME280;45815;52.334;5.024;2023-04-02T04:49:41;101857.25;;;5.28;100.00
58955;BME280;45815;52.334;5.024;2023-04-02T04:52:21;101872.25;;;5.33;100.00
58955;BME280;45815;52.334;5.024;2023-04-02T04:54:49;101883.47;;;5.32;100.00
58955;BME280;45815;52.334;5.024;2023-04-02T04:57:26;101886.09;;;5.32;100.00
58955;BME280;45815;52.334;5.024;2023-04-02T04:59:59;101889.22;;;5.26;100.00
58955;BME280;45815;52.334;5.024;2023-04-02T05:02:37;101894.97;;;5.20;100.00
58955;BME280;45815;52.334;5.024;2023-04-02T05:05:16;101901.09;;;5.06;100.00
58955;BME280;45815;52.334;5.024;2023-04-02T05:07:49;101912.84;;;5.14;100.00
58955;BME280;45815;52.334;5.024;2023-04-02T05:10:20;101916.25;;;5.13;100.00
58955;BME280;45815;52.334;5.024;2023-04-02T05:12:57;101923.69;;;5.07;100.00
58955;BME280;45815;52.334;5.024;2023-04-02T05:23:34;101933.66;;;4.99;100.00
58955;BME280;45815;52.334;5.024;2023-04-02T05:26:15;101939.81;;;4.86;100.00
58955;BME280;45815;52.334;5.024;2023-04-02T05:28:53;101940.47;;;4.82;100.00
58955;BME280;45815;52.334;5.024;2023-04-02T05:31:26;101938.41;;;4.92;100.00
58955;BME280;45815;52.334;5.024;2023-04-02T05:33:54;101947.56;;;5.00;100.00
58955;BME280;45815;52.334;5.024;2023-04-02T05:36:23;101954.53;;;5.01;100.00
58955;BME280;45815;52.334;5.024;2023-04-02T05:38:54;101966.38;;;4.96;100.00
58955;BME280;45815;52.334;5.024;2023-04-02T05:41:33;101970.25;;;4.88;100.00
58955;BME280;45815;52.334;5.024;2023-04-02T05:44:13;101975.50;;;4.74;100.00
58955;BME280;45815;52.334;5.024;2023-04-02T05:46:46;101972.78;;;4.73;100.00
58955;BME280;45815;52.334;5.024;2023-04-02T05:52:14;102000.09;;;4.79;100.00
58955;BME280;45815;52.334;5.024;2023-04-02T05:54:57;101999.50;;;4.70;100.00
58955;BME280;45815;52.334;5.024;2023-04-02T05:57:32;102003.84;;;4.70;100.00
58955;BME280;45815;52.334;5.024;2023-04-02T06:00:04;102028.75;;;4.66;100.00
58955;BME280;45815;52.334;5.024;2023-04-02T06:02:41;102011.50;;;4.53;100.00
58955;BME280;45815;52.334;5.024;2023-04-02T06:05:15;102040.56;;;4.61;100.00
58955;BME280;45815;52.334;5.024;2023-04-02T06:07:52;102036.34;;;4.63;100.00
58955;BME280;45815;52.334;5.024;2023-04-02T06:10:23;102043.16;;;4.61;100.00
58955;BME280;45815;52.334;5.024;2023-04-02T06:13:00;102054.09;;;4.55;100.00
58955;BME280;45815;52.334;5.024;2023-04-02T06:15:32;102059.00;;;4.51;100.00
58955;BME280;45815;52.334;5.024;2023-04-02T06:18:25;102068.81;;;4.41;100.00
58955;BME280;45815;52.334;5.024;2023-04-02T06:20:53;102063.78;;;4.44;100.00
58955;BME280;45815;52.334;5.024;2023-04-02T06:24:04;102078.38;;;4.56;100.00
58955;BME280;45815;52.334;5.024;2023-04-02T06:26:28;102090.00;;;4.48;100.00
58955;BME280;45815;52.334;5.024;2023-04-02T06:29:12;102077.84;;;4.33;100.00
58955;BME280;45815;52.334;5.024;2023-04-02T06:31:55;102092.38;;;4.44;100.00
58955;BME280;45815;52.334;5.024;2023-04-02T06:34:23;102092.09;;;4.53;100.00
58955;BME280;45815;52.334;5.024;2023-04-02T06:39:36;102107.28;;;4.60;100.00
58955;BME280;45815;52.334;5.024;2023-04-02T06:42:19;102119.59;;;4.50;100.00
58955;BME280;45815;52.334;5.024;2023-04-02T06:45:01;102122.81;;;4.59;100.00
58955;BME280;45815;52.334;5.024;2023-04-02T06:47:35;102127.19;;;4.60;100.00
58955;BME280;45815;52.334;5.024;2023-04-02T06:50:08;102134.16;;;4.61;100.00
58955;BME280;45815;52.334;5.024;2023-04-02T06:52:49;102141.38;;;4.52;100.00
58955;BME280;45815;52.334;5.024;2023-04-02T06:57:45;102131.19;;;4.41;100.00
58955;BME280;45815;52.334;5.024;2023-04-02T07:02:47;102160.19;;;4.48;100.00
58955;BME280;45815;52.334;5.024;2023-04-02T07:05:14;102159.19;;;4.46;100.00
58955;BME280;45815;52.334;5.024;2023-04-02T07:07:44;102163.69;;;4.35;100.00
58955;BME280;45815;52.334;5.024;2023-04-02T07:10:11;102164.97;;;4.28;100.00
58955;BME280;45815;52.334;5.024;2023-04-02T07:12:37;102173.78;;;4.30;100.00
58955;BME280;45815;52.334;5.024;2023-04-02T07:15:03;102175.19;;;4.25;100.00
58955;BME280;45815;52.334;5.024;2023-04-02T07:17:28;102184.69;;;4.25;100.00
58955;BME280;45815;52.334;5.024;2023-04-02T07:19:54;102195.59;;;4.32;100.00
58955;BME280;45815;52.334;5.024;2023-04-02T07:22:21;102192.97;;;4.32;100.00
58955;BME280;45815;52.334;5.024;2023-04-02T07:24:56;102195.78;;;4.35;100.00
58955;BME280;45815;52.334;5.024;2023-04-02T07:27:22;102201.97;;;4.37;100.00
58955;BME280;45815;52.334;5.024;2023-04-02T07:29:48;102210.78;;;4.39;100.00
58955;BME280;45815;52.334;5.024;2023-04-02T07:32:13;102210.19;;;4.43;100.00
58955;BME280;45815;52.334;5.024;2023-04-02T07:34:39;102218.41;;;4.50;100.00
58955;BME280;45815;52.334;5.024;2023-04-02T07:37:06;102214.09;;;4.37;100.00
58955;BME280;45815;52.334;5.024;2023-04-02T07:39:32;102231.78;;;4.56;100.00
58955;BME280;45815;52.334;5.024;2023-04-02T07:41:59;102219.31;;;4.50;100.00
58955;BME280;45815;52.334;5.024;2023-04-02T07:44:25;102240.47;;;4.56;100.00
58955;BME280;45815;52.334;5.024;2023-04-02T07:46:51;102241.00;;;4.64;100.00
58955;BME280;45815;52.334;5.024;2023-04-02T07:49:16;102243.38;;;4.61;100.00
58955;BME280;45815;52.334;5.024;2023-04-02T07:51:42;102233.41;;;4.67;100.00
58955;BME280;45815;52.334;5.024;2023-04-02T07:54:07;102242.81;;;4.78;100.00
58955;BME280;45815;52.334;5.024;2023-04-02T07:56:35;102244.50;;;4.78;100.00
58955;BME280;45815;52.334;5.024;2023-04-02T07:59:01;102250.22;;;4.85;100.00
58955;BME280;45815;52.334;5.024;2023-04-02T08:01:27;102260.63;;;4.99;100.00
58955;BME280;45815;52.334;5.024;2023-04-02T08:03:55;102264.88;;;4.98;100.00
58955;BME280;45815;52.334;5.024;2023-04-02T08:06:21;102259.59;;;4.97;100.00
58955;BME280;45815;52.334;5.024;2023-04-02T08:08:47;102261.88;;;5.05;100.00
58955;BME280;45815;52.334;5.024;2023-04-02T08:11:12;102268.31;;;5.11;100.00
58955;BME280;45815;52.334;5.024;2023-04-02T08:13:38;102276.00;;;5.22;100.00
58955;BME280;45815;52.334;5.024;2023-04-02T08:16:05;102278.09;;;5.56;100.00
58955;BME280;45815;52.334;5.024;2023-04-02T08:18:31;102269.53;;;5.72;100.00
58955;BME280;45815;52.334;5.024;2023-04-02T08:20:57;102271.41;;;5.88;100.00
58955;BME280;45815;52.334;5.024;2023-04-02T08:23:22;102281.59;;;5.98;100.00
58955;BME280;45815;52.334;5.024;2023-04-02T08:25:48;102288.81;;;6.02;100.00
58955;BME280;45815;52.334;5.024;2023-04-02T08:28:14;102287.38;;;6.22;100.00
58955;BME280;45815;52.334;5.024;2023-04-02T08:30:40;102287.75;;;6.43;100.00
58955;BME280;45815;52.334;5.024;2023-04-02T08:33:06;102286.84;;;6.58;100.00
58955;BME280;45815;52.334;5.024;2023-04-02T08:35:31;102296.75;;;6.63;100.00
58955;BME280;45815;52.334;5.024;2023-04-02T08:37:57;102308.81;;;6.76;100.00
58955;BME280;45815;52.334;5.024;2023-04-02T08:40:43;102304.69;;;6.80;100.00
58955;BME280;45815;52.334;5.024;2023-04-02T08:46:10;102321.66;;;7.03;100.00
58955;BME280;45815;52.334;5.024;2023-04-02T08:48:40;102313.25;;;7.08;100.00
58955;BME280;45815;52.334;5.024;2023-04-02T08:51:23;102317.66;;;7.24;100.00
58955;BME280;45815;52.334;5.024;2023-04-02T08:53:52;102324.91;;;7.45;100.00
58955;BME280;45815;52.334;5.024;2023-04-02T08:56:29;102327.78;;;7.34;100.00
58955;BME280;45815;52.334;5.024;2023-04-02T09:01:58;102345.84;;;7.77;100.00
58955;BME280;45815;52.334;5.024;2023-04-02T09:04:26;102339.66;;;8.08;100.00
58955;BME280;45815;52.334;5.024;2023-04-02T09:06:54;102343.25;;;8.27;100.00
58955;BME280;45815;52.334;5.024;2023-04-02T09:09:21;102360.47;;;8.39;100.00
58955;BME280;45815;52.334;5.024;2023-04-02T09:11:58;102354.69;;;8.45;100.00
58955;BME280;45815;52.334;5.024;2023-04-02T09:14:42;102360.06;;;8.64;100.00
58955;BME280;45815;52.334;5.024;2023-04-02T09:17:20;102346.16;;;8.65;100.00
58955;BME280;45815;52.334;5.024;2023-04-02T09:19:56;102360.31;;;8.87;100.00
58955;BME280;45815;52.334;5.024;2023-04-02T09:22:27;102360.50;;;8.90;100.00
58955;BME280;45815;52.334;5.024;2023-04-02T09:24:55;102359.31;;;9.01;100.00
58955;BME280;45815;52.334;5.024;2023-04-02T09:27:27;102366.13;;;9.16;100.00
58955;BME280;45815;52.334;5.024;2023-04-02T09:32:50;102388.22;;;9.21;100.00
58955;BME280;45815;52.334;5.024;2023-04-02T09:35:27;102377.13;;;9.26;100.00
58955;BME280;45815;52.334;5.024;2023-04-02T09:38:16;102392.41;;;9.35;100.00
58955;BME280;45815;52.334;5.024;2023-04-02T09:40:52;102390.63;;;9.34;100.00
58955;BME280;45815;52.334;5.024;2023-04-02T09:43:26;102386.09;;;9.32;100.00
58955;BME280;45815;52.334;5.024;2023-04-02T09:46:01;102394.50;;;9.42;100.00
58955;BME280;45815;52.334;5.024;2023-04-02T09:48:32;102394.81;;;9.48;100.00
58955;BME280;45815;52.334;5.024;2023-04-02T09:53:40;102402.50;;;9.81;100.00
58955;BME280;45815;52.334;5.024;2023-04-02T09:58:37;102415.19;;;9.91;100.00
58955;BME280;45815;52.334;5.024;2023-04-02T10:01:03;102414.75;;;10.00;100.00
58955;BME280;45815;52.334;5.024;2023-04-02T10:03:31;102400.22;;;9.89;100.00
58955;BME280;45815;52.334;5.024;2023-04-02T10:08:33;102417.28;;;10.18;100.00
58955;BME280;45815;52.334;5.024;2023-04-02T10:11:01;102422.28;;;10.12;100.00
58955;BME280;45815;52.334;5.024;2023-04-02T10:16:03;102429.72;;;10.40;100.00
58955;BME280;45815;52.334;5.024;2023-04-02T10:21:39;102441.09;;;10.41;100.00
58955;BME280;45815;52.334;5.024;2023-04-02T10:24:13;102444.88;;;10.28;100.00
58955;BME280;45815;52.334;5.024;2023-04-02T10:29:25;102437.50;;;10.39;100.00
58955;BME280;45815;52.334;5.024;2023-04-02T10:32:14;102436.34;;;10.51;100.00
58955;BME280;45815;52.334;5.024;2023-04-02T10:40:23;102442.41;;;10.70;100.00
58955;BME280;45815;52.334;5.024;2023-04-02T10:43:01;102447.38;;;10.83;100.00
58955;BME280;45815;52.334;5.024;2023-04-02T10:45:55;102453.78;;;10.90;100.00
58955;BME280;45815;52.334;5.024;2023-04-02T10:48:43;102450.88;;;11.03;100.00
58955;BME280;45815;52.334;5.024;2023-04-02T10:56:22;102464.06;;;11.26;100.00
58955;BME280;45815;52.334;5.024;2023-04-02T10:59:05;102465.03;;;11.28;100.00
58955;BME280;45815;52.334;5.024;2023-04-02T11:01:35;102468.56;;;11.49;100.00
58955;BME280;45815;52.334;5.024;2023-04-02T11:04:18;102461.41;;;11.45;100.00
58955;BME280;45815;52.334;5.024;2023-04-02T11:06:50;102459.38;;;11.60;100.00
58955;BME280;45815;52.334;5.024;2023-04-02T11:09:20;102467.91;;;11.76;100.00
58955;BME280;45815;52.334;5.024;2023-04-02T11:11:51;102468.22;;;11.83;100.00
58955;BME280;45815;52.334;5.024;2023-04-02T11:14:31;102476.78;;;11.78;100.00
58955;BME280;45815;52.334;5.024;2023-04-02T11:16:59;102478.25;;;11.92;100.00
58955;BME280;45815;52.334;5.024;2023-04-02T11:19:28;102483.03;;;12.02;100.00
58955;BME280;45815;52.334;5.024;2023-04-02T11:21:59;102480.66;;;12.09;100.00
58955;BME280;45815;52.334;5.024;2023-04-02T11:42:37;102517.16;;;12.93;100.00
58955;BME280;45815;52.334;5.024;2023-04-02T11:50:39;102521.72;;;13.22;100.00
58955;BME280;45815;52.334;5.024;2023-04-02T12:09:46;102530.13;;;14.14;100.00
58955;BME280;45815;52.334;5.024;2023-04-02T12:14:51;102537.69;;;14.32;96.40
58955;BME280;45815;52.334;5.024;2023-04-02T12:17:30;102534.06;;;14.29;96.04
58955;BME280;45815;52.334;5.024;2023-04-02T12:20:23;102538.63;;;14.06;90.10
58955;BME280;45815;52.334;5.024;2023-04-02T12:22:53;102532.31;;;14.29;93.20
58955;BME280;45815;52.334;5.024;2023-04-02T12:27:46;102531.44;;;14.57;92.45
58955;BME280;45815;52.334;5.024;2023-04-02T12:30:24;102535.78;;;14.55;89.34
58955;BME280;45815;52.334;5.024;2023-04-02T12:32:50;102536.50;;;14.80;89.37
58955;BME280;45815;52.334;5.024;2023-04-02T12:35:30;102530.44;;;14.84;84.98
58955;BME280;45815;52.334;5.024;2023-04-02T12:37:57;102537.13;;;14.71;85.60
58955;BME280;45815;52.334;5.024;2023-04-02T12:40:23;102531.56;;;14.92;88.93
58955;BME280;45815;52.334;5.024;2023-04-02T12:42:49;102542.66;;;15.11;88.45
58955;BME280;45815;52.334;5.024;2023-04-02T12:45:44;102554.13;;;15.11;80.22
58955;BME280;45815;52.334;5.024;2023-04-02T12:48:15;102539.91;;;15.39;85.72
58955;BME280;45815;52.334;5.024;2023-04-02T12:50:40;102539.44;;;15.56;84.73
58955;BME280;45815;52.334;5.024;2023-04-02T12:53:18;102559.19;;;15.35;81.54
58955;BME280;45815;52.334;5.024;2023-04-02T12:55:50;102550.72;;;15.49;80.51
58955;BME280;45815;52.334;5.024;2023-04-02T13:00:51;102553.78;;;15.64;84.61
58955;BME280;45815;52.334;5.024;2023-04-02T13:03:18;102554.91;;;15.72;82.31
58955;BME280;45815;52.334;5.024;2023-04-02T13:05:55;102563.78;;;15.74;80.45
58955;BME280;45815;52.334;5.024;2023-04-02T13:08:29;102545.03;;;15.67;77.13
58955;BME280;45815;52.334;5.024;2023-04-02T13:11:01;102548.84;;;15.76;79.02
58955;BME280;45815;52.334;5.024;2023-04-02T13:13:33;102554.06;;;15.75;81.63
58955;BME280;45815;52.334;5.024;2023-04-02T13:16:23;102540.38;;;15.58;80.20
58955;BME280;45815;52.334;5.024;2023-04-02T13:18:49;102555.34;;;15.91;83.38
58955;BME280;45815;52.334;5.024;2023-04-02T13:23:40;102559.78;;;15.92;81.00
58955;BME280;45815;52.334;5.024;2023-04-02T13:31:27;102561.03;;;16.06;82.07
58955;BME280;45815;52.334;5.024;2023-04-02T13:33:53;102562.53;;;15.96;80.59
58955;BME280;45815;52.334;5.024;2023-04-02T13:36:19;102569.97;;;16.11;81.58
58955;BME280;45815;52.334;5.024;2023-04-02T13:38:45;102564.81;;;16.17;79.29
58955;BME280;45815;52.334;5.024;2023-04-02T13:41:18;102567.22;;;16.07;73.75
58955;BME280;45815;52.334;5.024;2023-04-02T13:43:47;102572.81;;;16.19;77.98
58955;BME280;45815;52.334;5.024;2023-04-02T13:46:19;102570.09;;;16.17;78.19
58955;BME280;45815;52.334;5.024;2023-04-02T13:48:46;102579.09;;;16.22;78.62
58955;BME280;45815;52.334;5.024;2023-04-02T13:51:16;102578.72;;;16.07;75.93
58955;BME280;45815;52.334;5.024;2023-04-02T13:53:44;102581.91;;;16.30;78.08
58955;BME280;45815;52.334;5.024;2023-04-02T13:56:11;102570.16;;;16.19;77.60
58955;BME280;45815;52.334;5.024;2023-04-02T13:58:36;102587.09;;;16.25;76.77
58955;BME280;45815;52.334;5.024;2023-04-02T14:01:02;102588.03;;;16.28;77.71
58955;BME280;45815;52.334;5.024;2023-04-02T14:03:28;102582.84;;;16.32;76.69
58955;BME280;45815;52.334;5.024;2023-04-02T14:35:42;102606.50;;;16.24;74.48
58955;BME280;45815;52.334;5.024;2023-04-02T14:38:42;102602.88;;;16.21;75.21
58955;BME280;45815;52.334;5.024;2023-04-02T14:41:23;102607.53;;;16.31;76.37
58955;BME280;45815;52.334;5.024;2023-04-02T14:43:58;102618.41;;;16.42;76.40
58955;BME280;45815;52.334;5.024;2023-04-02T14:46:27;102610.66;;;16.51;78.34
58955;BME280;45815;52.334;5.024;2023-04-02T14:54:10;102614.97;;;16.48;75.58
58955;BME280;45815;52.334;5.024;2023-04-02T14:56:43;102626.69;;;16.57;76.17
58955;BME280;45815;52.334;5.024;2023-04-02T14:59:24;102629.78;;;16.38;76.40
58955;BME280;45815;52.334;5.024;2023-04-02T15:02:00;102622.75;;;16.40;74.46
58955;BME280;45815;52.334;5.024;2023-04-02T15:04:40;102627.19;;;16.41;74.66
58955;BME280;45815;52.334;5.024;2023-04-02T15:07:15;102622.09;;;16.50;73.73
58955;BME280;45815;52.334;5.024;2023-04-02T15:09:46;102625.25;;;16.34;74.78
58955;BME280;45815;52.334;5.024;2023-04-02T15:12:23;102627.06;;;16.35;73.00
58955;BME280;45815;52.334;5.024;2023-04-02T15:14:54;102622.69;;;16.37;74.78
58955;BME280;45815;52.334;5.024;2023-04-02T15:17:23;102631.44;;;16.33;77.36
58955;BME280;45815;52.334;5.024;2023-04-02T15:19:50;102631.84;;;16.13;79.11
58955;BME280;45815;52.334;5.024;2023-04-02T15:22:45;102631.28;;;15.92;79.00
58955;BME280;45815;52.334;5.024;2023-04-02T15:30:48;102629.09;;;16.10;77.82
58955;BME280;45815;52.334;5.024;2023-04-02T15:34:20;102634.16;;;15.99;76.00
58955;BME280;45815;52.334;5.024;2023-04-02T15:38:49;102627.88;;;15.96;77.53
58955;BME280;45815;52.334;5.024;2023-04-02T15:41:37;102632.03;;;15.86;74.09
58955;BME280;45815;52.334;5.024;2023-04-02T15:44:08;102624.44;;;16.00;77.71
58955;BME280;45815;52.334;5.024;2023-04-02T15:54:41;102643.72;;;15.62;78.27
58955;BME280;45815;52.334;5.024;2023-04-02T16:00:24;102652.06;;;15.45;78.57
58955;BME280;45815;52.334;5.024;2023-04-02T16:08:51;102661.19;;;15.24;81.83
58955;BME280;45815;52.334;5.024;2023-04-02T16:11:22;102655.53;;;15.12;82.44
58955;BME280;45815;52.334;5.024;2023-04-02T16:13:47;102659.22;;;14.87;83.14
58955;BME280;45815;52.334;5.024;2023-04-02T16:21:27;102670.28;;;14.48;84.95
58955;BME280;45815;52.334;5.024;2023-04-02T16:23:53;102668.13;;;14.36;85.77
58955;BME280;45815;52.334;5.024;2023-04-02T16:27:06;102671.75;;;13.87;86.58
58955;BME280;45815;52.334;5.024;2023-04-02T16:43:21;102683.78;;;12.63;100.00
58955;BME280;45815;52.334;5.024;2023-04-02T16:51:17;102705.34;;;12.53;100.00
58955;BME280;45815;52.334;5.024;2023-04-02T16:54:10;102714.56;;;12.22;100.00
58955;BME280;45815;52.334;5.024;2023-04-02T17:02:00;102721.75;;;11.86;100.00
58955;BME280;45815;52.334;5.024;2023-04-02T17:13:17;102744.31;;;11.41;100.00
58955;BME280;45815;52.334;5.024;2023-04-02T17:15:48;102740.25;;;11.29;100.00
58955;BME280;45815;52.334;5.024;2023-04-02T17:18:18;102754.88;;;11.24;100.00
58955;BME280;45815;52.334;5.024;2023-04-02T17:20:45;102757.16;;;11.16;100.00
58955;BME280;45815;52.334;5.024;2023-04-02T17:23:12;102747.09;;;11.07;100.00
58955;BME280;45815;52.334;5.024;2023-04-02T17:26:04;102753.72;;;10.99;100.00
58955;BME280;45815;52.334;5.024;2023-04-02T17:28:30;102755.81;;;10.88;100.00
58955;BME280;45815;52.334;5.024;2023-04-02T17:31:12;102767.97;;;10.86;100.00
58955;BME280;45815;52.334;5.024;2023-04-02T17:33:41;102766.63;;;10.76;100.00
58955;BME280;45815;52.334;5.024;2023-04-02T17:45:22;102786.72;;;10.58;100.00
58955;BME280;45815;52.334;5.024;2023-04-02T17:48:00;102799.56;;;10.70;100.00
58955;BME280;45815;52.334;5.024;2023-04-02T17:50:39;102807.81;;;10.60;100.00
58955;BME280;45815;52.334;5.024;2023-04-02T17:53:15;102802.66;;;10.61;100.00
58955;BME280;45815;52.334;5.024;2023-04-02T18:01:48;102815.31;;;10.52;100.00
58955;BME280;45815;52.334;5.024;2023-04-02T18:07:23;102822.25;;;10.33;100.00